createdAt,value
2024-03-11T00:00:02.862Z,97478.00
2024-03-11T00:01:02.887Z,97480.00
2024-03-11T00:02:02.912Z,97481.00
2024-03-11T00:03:02.926Z,97483.00
2024-03-11T00:04:02.916Z,97484.00
2024-03-11T00:05:02.956Z,97487.00
2024-03-11T00:06:02.941Z,97491.00
2024-03-11T00:07:02.897Z,97491.00
2024-03-11T00:08:03.017Z,97492.00
2024-03-11T00:09:02.912Z,97494.00
2024-03-11T00:10:02.932Z,97494.00
2024-03-11T00:11:03.006Z,97496.00
2024-03-11T00:12:03.042Z,97491.00
2024-03-11T00:13:02.971Z,97496.00
2024-03-11T00:14:02.996Z,97492.00
2024-03-11T00:15:02.976Z,97493.00
2024-03-11T00:16:02.979Z,97497.00
2024-03-11T00:17:03.013Z,97500.00
2024-03-11T00:18:03.063Z,97501.00
2024-03-11T00:19:03.021Z,97499.00
2024-03-11T00:20:03.062Z,97504.00
2024-03-11T00:21:02.997Z,97510.00
2024-03-11T00:22:04.631Z,97506.00
2024-03-11T00:23:03.067Z,97505.00
2024-03-11T00:24:03.057Z,97501.00
2024-03-11T00:25:03.077Z,97507.00
2024-03-11T00:26:03.101Z,97510.00
2024-03-11T00:27:03.083Z,97510.00
2024-03-11T00:28:03.142Z,97514.00
2024-03-11T00:29:03.213Z,97513.00
2024-03-11T00:30:03.156Z,97513.00
2024-03-11T00:31:03.179Z,97517.00
2024-03-11T00:32:03.240Z,97520.00
2024-03-11T00:33:03.291Z,97521.00
2024-03-11T00:34:03.254Z,97521.00
2024-03-11T00:35:03.262Z,97524.00
2024-03-11T00:36:03.256Z,97523.00
2024-03-11T00:37:03.298Z,97514.00
2024-03-11T00:38:03.344Z,97519.00
2024-03-11T00:39:03.320Z,97521.00
2024-03-11T00:40:03.281Z,97520.00
2024-03-11T00:41:03.321Z,97520.00
2024-03-11T00:43:03.334Z,97530.00
2024-03-11T00:44:03.396Z,97530.00
2024-03-11T00:45:03.364Z,97526.00
2024-03-11T00:46:03.373Z,97518.00
2024-03-11T00:47:03.416Z,97525.00
2024-03-11T00:48:03.483Z,97525.00
2024-03-11T00:49:05.822Z,97519.00
2024-03-11T00:50:03.458Z,97520.00
2024-03-11T00:51:03.419Z,97516.00
2024-03-11T00:52:03.443Z,97518.00
2024-03-11T00:53:03.412Z,97521.00
2024-03-11T00:54:03.421Z,97524.00
2024-03-11T00:55:03.428Z,97517.00
2024-03-11T00:56:03.493Z,97522.00
2024-03-11T00:57:03.461Z,97530.00
2024-03-11T00:58:03.486Z,97524.00
2024-03-11T00:59:03.516Z,97532.00
2024-03-11T01:00:03.505Z,97535.00
2024-03-11T01:01:03.534Z,97530.00
2024-03-11T01:02:03.533Z,97535.00
2024-03-11T01:03:03.531Z,97537.00
2024-03-11T01:04:03.543Z,97540.00
2024-03-11T01:05:03.721Z,97545.00
2024-03-11T01:06:03.560Z,97538.00
2024-03-11T01:07:12.593Z,97539.00
2024-03-11T01:08:03.584Z,97535.00
2024-03-11T01:09:03.551Z,97536.00
2024-03-11T01:10:03.607Z,97533.00
2024-03-11T01:11:03.709Z,97536.00
2024-03-11T01:12:03.678Z,97540.00
2024-03-11T01:13:03.598Z,97539.00
2024-03-11T01:15:03.614Z,97539.00
2024-03-11T01:16:03.624Z,97541.00
2024-03-11T01:17:03.671Z,97544.00
2024-03-11T01:18:03.791Z,97544.00
2024-03-11T01:19:03.734Z,97544.00
2024-03-11T01:20:03.776Z,97543.00
2024-03-11T01:21:03.723Z,97545.00
2024-03-11T01:22:03.728Z,97546.00
2024-03-11T01:23:03.772Z,97545.00
2024-03-11T01:24:03.754Z,97547.00
2024-03-11T01:25:03.760Z,97546.00
2024-03-11T01:26:03.840Z,97546.00
2024-03-11T01:27:03.780Z,97548.00
2024-03-11T01:28:03.783Z,97552.00
2024-03-11T01:29:03.810Z,97557.00
2024-03-11T01:30:03.801Z,97554.00
2024-03-11T01:32:03.846Z,97564.00
2024-03-11T01:33:03.950Z,97563.00
2024-03-11T01:34:03.839Z,97567.00
2024-03-11T01:35:03.882Z,97567.00
2024-03-11T01:36:03.868Z,97569.00
2024-03-11T01:37:03.862Z,97570.00
2024-03-11T01:38:03.951Z,97575.00
2024-03-11T01:39:03.868Z,97575.00
2024-03-11T01:40:03.905Z,97572.00
2024-03-11T01:41:03.931Z,97573.00
2024-03-11T01:42:03.950Z,97578.00
2024-03-11T01:43:03.917Z,97576.00
2024-03-11T01:44:03.972Z,97578.00
2024-03-11T01:45:03.912Z,97582.00
2024-03-11T01:46:03.936Z,97576.00
2024-03-11T01:47:04.000Z,97575.00
2024-03-11T01:48:04.079Z,97580.00
2024-03-11T01:49:03.945Z,97577.00
2024-03-11T01:50:03.990Z,97579.00
2024-03-11T01:51:04.038Z,97574.00
2024-03-11T01:52:04.074Z,97576.00
2024-03-11T01:53:04.019Z,97580.00
2024-03-11T01:54:04.021Z,97575.00
2024-03-11T01:55:04.055Z,97577.00
2024-03-11T01:56:04.106Z,97577.00
2024-03-11T01:57:04.062Z,97578.00
2024-03-11T01:58:04.261Z,97576.00
2024-03-11T01:59:04.127Z,97577.00
2024-03-11T02:00:04.100Z,97581.00
2024-03-11T02:01:04.170Z,97578.00
2024-03-11T02:02:04.173Z,97581.00
2024-03-11T02:03:04.123Z,97580.00
2024-03-11T02:04:04.141Z,97583.00
2024-03-11T02:05:04.166Z,97582.00
2024-03-11T02:06:04.148Z,97583.00
2024-03-11T02:07:04.159Z,97583.00
2024-03-11T02:08:04.300Z,97582.00
2024-03-11T02:09:04.195Z,97581.00
2024-03-11T02:10:04.198Z,97582.00
2024-03-11T02:11:04.267Z,97587.00
2024-03-11T02:12:04.262Z,97591.00
2024-03-11T02:13:04.281Z,97589.00
2024-03-11T02:14:04.374Z,97591.00
2024-03-11T02:15:04.292Z,97596.00
2024-03-11T02:16:04.326Z,97598.00
2024-03-11T02:17:04.353Z,97593.00
2024-03-11T02:18:06.565Z,97596.00
2024-03-11T02:19:04.358Z,97600.00
2024-03-11T02:20:04.412Z,97595.00
2024-03-11T02:21:04.379Z,97597.00
2024-03-11T02:22:04.392Z,97598.00
2024-03-11T02:23:04.414Z,97598.00
2024-03-11T02:24:04.428Z,97596.00
2024-03-11T02:25:04.407Z,97598.00
2024-03-11T02:26:04.430Z,97596.00
2024-03-11T02:27:04.407Z,97599.00
2024-03-11T02:28:04.594Z,97591.00
2024-03-11T02:29:04.479Z,97589.00
2024-03-11T02:30:04.508Z,97591.00
2024-03-11T02:32:04.532Z,97593.00
2024-03-11T02:33:04.749Z,97590.00
2024-03-11T02:34:04.591Z,97592.00
2024-03-11T02:35:04.679Z,97599.00
2024-03-11T02:36:04.689Z,97597.00
2024-03-11T02:37:04.646Z,97596.00
2024-03-11T02:38:04.716Z,97597.00
2024-03-11T02:39:04.619Z,97597.00
2024-03-11T02:40:04.613Z,97593.00
2024-03-11T02:41:04.719Z,97591.00
2024-03-11T02:42:04.821Z,97598.00
2024-03-11T02:43:04.764Z,97601.00
2024-03-11T02:44:04.721Z,97595.00
2024-03-11T02:45:04.682Z,97594.00
2024-03-11T02:46:04.759Z,97596.00
2024-03-11T02:47:04.814Z,97600.00
2024-03-11T02:48:04.846Z,97594.00
2024-03-11T02:49:04.703Z,97597.00
2024-03-11T02:50:04.733Z,97597.00
2024-03-11T02:51:04.740Z,97595.00
2024-03-11T02:52:04.737Z,97599.00
2024-03-11T02:53:04.758Z,97599.00
2024-03-11T02:54:04.679Z,97597.00
2024-03-11T02:56:04.835Z,97596.00
2024-03-11T02:57:04.726Z,97601.00
2024-03-11T02:58:04.691Z,97594.00
2024-03-11T02:59:04.733Z,97599.00
2024-03-11T03:00:04.757Z,97600.00
2024-03-11T03:01:04.691Z,97599.00
2024-03-11T03:02:04.889Z,97599.00
2024-03-11T03:03:04.831Z,97600.00
2024-03-11T03:04:04.735Z,97603.00
2024-03-11T03:05:04.791Z,97603.00
2024-03-11T03:06:04.756Z,97601.00
2024-03-11T03:07:04.757Z,97605.00
2024-03-11T03:08:04.834Z,97605.00
2024-03-11T03:09:04.808Z,97606.00
2024-03-11T03:10:04.882Z,97607.00
2024-03-11T03:12:04.966Z,97609.00
2024-03-11T03:14:04.876Z,97609.00
2024-03-11T03:15:04.844Z,97614.00
2024-03-11T03:16:04.855Z,97612.00
2024-03-11T03:17:04.904Z,97613.00
2024-03-11T03:18:04.971Z,97615.00
2024-03-11T03:19:04.908Z,97616.00
2024-03-11T03:20:04.948Z,97618.00
2024-03-11T03:21:04.895Z,97615.00
2024-03-11T03:22:05.109Z,97614.00
2024-03-11T03:23:04.941Z,97621.00
2024-03-11T03:24:04.929Z,97616.00
2024-03-11T03:25:04.938Z,97616.00
2024-03-11T03:26:05.030Z,97616.00
2024-03-11T03:27:04.998Z,97612.00
2024-03-11T03:28:05.002Z,97611.00
2024-03-11T03:29:05.027Z,97617.00
2024-03-11T03:30:05.056Z,97618.00
2024-03-11T03:31:05.000Z,97614.00
2024-03-11T03:33:05.267Z,97615.00
2024-03-11T03:34:05.052Z,97616.00
2024-03-11T03:35:05.019Z,97618.00
2024-03-11T03:36:05.060Z,97620.00
2024-03-11T03:37:04.995Z,97619.00
2024-03-11T03:38:05.063Z,97619.00
2024-03-11T03:39:05.004Z,97618.00
2024-03-11T03:40:05.030Z,97619.00
2024-03-11T03:41:05.058Z,97624.00
2024-03-11T03:42:05.786Z,97622.00
2024-03-11T03:43:05.149Z,97623.00
2024-03-11T03:44:05.064Z,97624.00
2024-03-11T03:45:05.042Z,97621.00
2024-03-11T03:46:05.051Z,97624.00
2024-03-11T03:47:05.131Z,97628.00
2024-03-11T03:48:05.315Z,97621.00
2024-03-11T03:49:05.054Z,97624.00
2024-03-11T03:50:05.165Z,97625.00
2024-03-11T03:51:05.074Z,97627.00
2024-03-11T03:52:05.135Z,97633.00
2024-03-11T03:53:07.431Z,97631.00
2024-03-11T03:54:05.137Z,97634.00
2024-03-11T03:55:05.194Z,97631.00
2024-03-11T03:56:05.233Z,97638.00
2024-03-11T03:57:05.235Z,97640.00
2024-03-11T03:58:05.195Z,97638.00
2024-03-11T03:59:05.290Z,97643.00
2024-03-11T04:00:05.248Z,97643.00
2024-03-11T04:01:05.293Z,97641.00
2024-03-11T04:02:05.317Z,97645.00
2024-03-11T04:03:05.232Z,97646.00
2024-03-11T04:04:05.261Z,97642.00
2024-03-11T04:05:05.291Z,97650.00
2024-03-11T04:06:05.350Z,97646.00
2024-03-11T04:07:05.305Z,97652.00
2024-03-11T04:08:05.368Z,97652.00
2024-03-11T04:09:05.367Z,97655.00
2024-03-11T04:10:05.352Z,97656.00
2024-03-11T04:11:05.453Z,97659.00
2024-03-11T04:12:05.706Z,97654.00
2024-03-11T04:13:05.431Z,97656.00
2024-03-11T04:14:05.408Z,97658.00
2024-03-11T04:15:05.406Z,97661.00
2024-03-11T04:16:05.381Z,97653.00
2024-03-11T04:17:05.413Z,97664.00
2024-03-11T04:18:05.554Z,97664.00
2024-03-11T04:19:05.378Z,97663.00
2024-03-11T04:20:05.403Z,97656.00
2024-03-11T04:21:05.417Z,97665.00
2024-03-11T04:22:05.531Z,97668.00
2024-03-11T04:23:05.535Z,97666.00
2024-03-11T04:24:05.604Z,97667.00
2024-03-11T04:25:05.438Z,97664.00
2024-03-11T04:26:05.477Z,97667.00
2024-03-11T04:27:05.441Z,97666.00
2024-03-11T04:28:05.462Z,97666.00
2024-03-11T04:29:05.542Z,97666.00
2024-03-11T04:30:05.485Z,97665.00
2024-03-11T04:31:05.506Z,97663.00
2024-03-11T04:32:05.611Z,97669.00
2024-03-11T04:33:05.593Z,97667.00
2024-03-11T04:34:05.559Z,97667.00
2024-03-11T04:35:05.613Z,97665.00
2024-03-11T04:36:05.577Z,97671.00
2024-03-11T04:37:05.598Z,97673.00
2024-03-11T04:38:05.790Z,97672.00
2024-03-11T04:39:05.615Z,97670.00
2024-03-11T04:40:05.619Z,97669.00
2024-03-11T04:41:05.708Z,97674.00
2024-03-11T04:42:05.690Z,97674.00
2024-03-11T04:43:05.669Z,97676.00
2024-03-11T04:44:05.673Z,97679.00
2024-03-11T04:45:05.673Z,97681.00
2024-03-11T04:46:05.693Z,97681.00
2024-03-11T04:47:05.836Z,97685.00
2024-03-11T04:48:05.810Z,97684.00
2024-03-11T04:49:05.754Z,97685.00
2024-03-11T04:50:05.746Z,97685.00
2024-03-11T04:51:05.797Z,97691.00
2024-03-11T04:52:05.837Z,97690.00
2024-03-11T04:53:05.811Z,97689.00
2024-03-11T04:54:05.879Z,97694.00
2024-03-11T04:55:05.797Z,97692.00
2024-03-11T04:56:05.874Z,97685.00
2024-03-11T04:57:05.826Z,97691.00
2024-03-11T04:58:06.036Z,97688.00
2024-03-11T04:59:05.918Z,97691.00
2024-03-11T05:01:05.907Z,97693.00
2024-03-11T05:02:05.967Z,97692.00
2024-03-11T05:03:06.767Z,97683.00
2024-03-11T05:04:06.932Z,97690.00
2024-03-11T05:05:05.971Z,97690.00
2024-03-11T05:06:05.929Z,97692.00
2024-03-11T05:07:05.954Z,97691.00
2024-03-11T05:08:06.366Z,97687.00
2024-03-11T05:09:06.054Z,97688.00
2024-03-11T05:10:06.045Z,97684.00
2024-03-11T05:11:06.016Z,97684.00
2024-03-11T05:12:06.035Z,97685.00
2024-03-11T05:13:05.955Z,97684.00
2024-03-11T05:14:05.999Z,97682.00
2024-03-11T05:15:05.989Z,97681.00
2024-03-11T05:16:05.998Z,97678.00
2024-03-11T05:17:06.081Z,97675.00
2024-03-11T05:18:06.176Z,97685.00
2024-03-11T05:19:06.037Z,97682.00
2024-03-11T05:20:06.090Z,97684.00
2024-03-11T05:21:06.056Z,97684.00
2024-03-11T05:22:06.103Z,97686.00
2024-03-11T05:24:06.073Z,97691.00
2024-03-11T05:25:06.147Z,97691.00
2024-03-11T05:27:06.100Z,97696.00
2024-03-11T05:28:06.140Z,97702.00
2024-03-11T05:29:06.138Z,97698.00
2024-03-11T05:30:06.110Z,97700.00
2024-03-11T05:31:06.154Z,97703.00
2024-03-11T05:32:06.246Z,97706.00
2024-03-11T05:33:06.278Z,97703.00
2024-03-11T05:34:06.137Z,97715.00
2024-03-11T05:35:06.206Z,97720.00
2024-03-11T05:36:06.271Z,97723.00
2024-03-11T05:37:06.167Z,97728.00
2024-03-11T05:38:06.184Z,97729.00
2024-03-11T05:39:06.180Z,97730.00
2024-03-11T05:40:06.206Z,97734.00
2024-03-11T05:41:06.229Z,97735.00
2024-03-11T05:43:06.268Z,97737.00
2024-03-11T05:44:06.262Z,97738.00
2024-03-11T05:45:06.245Z,97740.00
2024-03-11T05:46:06.245Z,97737.00
2024-03-11T05:48:06.406Z,97741.00
2024-03-11T05:49:06.309Z,97743.00
2024-03-11T05:50:06.344Z,97751.00
2024-03-11T05:51:06.421Z,97745.00
2024-03-11T05:52:06.368Z,97751.00
2024-03-11T05:53:06.511Z,97753.00
2024-03-11T05:54:06.410Z,97753.00
2024-03-11T05:55:07.368Z,97757.00
2024-03-11T05:56:06.406Z,97760.00
2024-03-11T05:57:06.334Z,97758.00
2024-03-11T05:58:06.417Z,97761.00
2024-03-11T05:59:06.414Z,97766.00
2024-03-11T06:00:06.399Z,97766.00
2024-03-11T06:02:06.513Z,97767.00
2024-03-11T06:03:06.421Z,97767.00
2024-03-11T06:04:06.413Z,97773.00
2024-03-11T06:05:06.559Z,97778.00
2024-03-11T06:06:06.395Z,97778.00
2024-03-11T06:07:06.438Z,97783.00
2024-03-11T06:08:06.469Z,97778.00
2024-03-11T06:09:06.472Z,97784.00
2024-03-11T06:10:06.488Z,97786.00
2024-03-11T06:11:06.625Z,97786.00
2024-03-11T06:13:06.486Z,97796.00
2024-03-11T06:14:06.590Z,97799.00
2024-03-11T06:15:06.546Z,97802.00
2024-03-11T06:16:06.565Z,97804.00
2024-03-11T06:17:06.606Z,97809.00
2024-03-11T06:18:06.787Z,97808.00
2024-03-11T06:19:06.607Z,97810.00
2024-03-11T06:20:06.655Z,97810.00
2024-03-11T06:21:06.677Z,97811.00
2024-03-11T06:22:06.662Z,97811.00
2024-03-11T06:23:06.768Z,97816.00
2024-03-11T06:24:06.697Z,97815.00
2024-03-11T06:25:06.739Z,97815.00
2024-03-11T06:26:06.841Z,97811.00
2024-03-11T06:28:06.742Z,97810.00
2024-03-11T06:30:06.825Z,97816.00
2024-03-11T06:31:06.777Z,97811.00
2024-03-11T06:32:07.142Z,97810.00
2024-03-11T06:33:06.889Z,97826.00
2024-03-11T06:34:06.861Z,97820.00
2024-03-11T06:35:07.185Z,97826.00
2024-03-11T06:36:06.867Z,97831.00
2024-03-11T06:38:06.884Z,97832.00
2024-03-11T06:39:06.875Z,97832.00
2024-03-11T06:40:06.886Z,97833.00
2024-03-11T06:41:06.915Z,97845.00
2024-03-11T06:42:06.866Z,97839.00
2024-03-11T06:43:06.940Z,97844.00
2024-03-11T06:44:09.261Z,97838.00
2024-03-11T06:45:07.176Z,97841.00
2024-03-11T06:46:07.070Z,97843.00
2024-03-11T06:47:06.927Z,97842.00
2024-03-11T06:48:07.051Z,97845.00
2024-03-11T06:49:07.018Z,97844.00
2024-03-11T06:50:06.970Z,97844.00
2024-03-11T06:51:06.990Z,97844.00
2024-03-11T06:52:07.043Z,97842.00
2024-03-11T06:53:07.070Z,97844.00
2024-03-11T06:54:06.983Z,97842.00
2024-03-11T06:55:06.992Z,97845.00
2024-03-11T06:56:06.992Z,97841.00
2024-03-11T06:57:07.929Z,97841.00
2024-03-11T06:58:07.032Z,97839.00
2024-03-11T06:59:07.057Z,97836.00
2024-03-11T07:00:07.127Z,97832.00
2024-03-11T07:01:07.134Z,97832.00
2024-03-11T07:02:07.126Z,97836.00
2024-03-11T07:03:08.695Z,97835.00
2024-03-11T07:05:07.125Z,97834.00
2024-03-11T07:06:07.161Z,97836.00
2024-03-11T07:07:07.125Z,97842.00
2024-03-11T07:09:07.391Z,97838.00
2024-03-11T07:10:07.210Z,97838.00
2024-03-11T07:11:07.293Z,97842.00
2024-03-11T07:12:07.416Z,97845.00
2024-03-11T07:13:07.187Z,97846.00
2024-03-11T07:14:07.221Z,97852.00
2024-03-11T07:15:07.239Z,97854.00
2024-03-11T07:16:07.291Z,97856.00
2024-03-11T07:17:09.703Z,97860.00
2024-03-11T07:18:07.334Z,97860.00
2024-03-11T07:19:07.359Z,97861.00
2024-03-11T07:20:07.335Z,97863.00
2024-03-11T07:21:07.396Z,97865.00
2024-03-11T07:22:07.396Z,97869.00
2024-03-11T07:23:07.351Z,97871.00
2024-03-11T07:24:07.462Z,97875.00
2024-03-11T07:25:07.493Z,97873.00
2024-03-11T07:27:07.484Z,97876.00
2024-03-11T07:28:09.482Z,97875.00
2024-03-11T07:31:07.489Z,97880.00
2024-03-11T07:32:07.657Z,97884.00
2024-03-11T07:33:07.584Z,97880.00
2024-03-11T07:34:07.598Z,97884.00
2024-03-11T07:35:07.551Z,97886.00
2024-03-11T07:36:07.546Z,97886.00
2024-03-11T07:37:07.560Z,97886.00
2024-03-11T07:38:07.834Z,97889.00
2024-03-11T07:39:07.655Z,97891.00
2024-03-11T07:40:07.647Z,97897.00
2024-03-11T07:41:07.588Z,97894.00
2024-03-11T07:42:07.671Z,97897.00
2024-03-11T07:43:07.829Z,97900.00
2024-03-11T07:44:08.081Z,97898.00
2024-03-11T07:45:07.687Z,97898.00
2024-03-11T07:46:08.046Z,97897.00
2024-03-11T07:47:07.721Z,97898.00
2024-03-11T07:48:07.775Z,97898.00
2024-03-11T07:50:07.777Z,97907.00
2024-03-11T07:51:07.802Z,97906.00
2024-03-11T07:52:07.813Z,97906.00
2024-03-11T07:53:07.778Z,97905.00
2024-03-11T07:54:07.819Z,97909.00
2024-03-11T07:55:07.792Z,97910.00
2024-03-11T07:56:07.787Z,97916.00
2024-03-11T07:57:07.819Z,97924.00
2024-03-11T07:58:07.788Z,97926.00
2024-03-11T07:59:07.806Z,97926.00
2024-03-11T08:00:07.858Z,97929.00
2024-03-11T08:01:07.867Z,97929.00
2024-03-11T08:02:07.813Z,97935.00
2024-03-11T08:03:07.840Z,97932.00
2024-03-11T08:04:07.883Z,97939.00
2024-03-11T08:05:08.110Z,97939.00
2024-03-11T08:06:07.904Z,97942.00
2024-03-11T08:07:07.844Z,97940.00
2024-03-11T08:08:07.866Z,97939.00
2024-03-11T08:09:07.893Z,97941.00
2024-03-11T08:10:07.951Z,97948.00
2024-03-11T08:11:07.996Z,97953.00
2024-03-11T08:12:07.972Z,97954.00
2024-03-11T08:13:07.999Z,97958.00
2024-03-11T08:14:08.021Z,97960.00
2024-03-11T08:15:08.024Z,97963.00
2024-03-11T08:16:08.008Z,97961.00
2024-03-11T08:17:08.118Z,97962.00
2024-03-11T08:18:08.051Z,97963.00
2024-03-11T08:19:08.080Z,97965.00
2024-03-11T08:20:08.232Z,97967.00
2024-03-11T08:21:08.061Z,97964.00
2024-03-11T08:23:08.128Z,97963.00
2024-03-11T08:24:08.065Z,97968.00
2024-03-11T08:25:08.090Z,97966.00
2024-03-11T08:26:08.223Z,97971.00
2024-03-11T08:27:09.363Z,97967.00
2024-03-11T08:28:08.200Z,97969.00
2024-03-11T08:29:08.212Z,97970.00
2024-03-11T08:30:08.146Z,97972.00
2024-03-11T08:31:08.184Z,97977.00
2024-03-11T08:32:08.193Z,97973.00
2024-03-11T08:34:08.384Z,97971.00
2024-03-11T08:35:08.820Z,97977.00
2024-03-11T08:36:08.235Z,97976.00
2024-03-11T08:37:08.254Z,97974.00
2024-03-11T08:38:08.328Z,97974.00
2024-03-11T08:39:08.267Z,97970.00
2024-03-11T08:40:08.317Z,97971.00
2024-03-11T08:41:08.467Z,97969.00
2024-03-11T08:42:08.566Z,97966.00
2024-03-11T08:44:08.347Z,97969.00
2024-03-11T08:46:08.572Z,97975.00
2024-03-11T08:47:10.833Z,97971.00
2024-03-11T08:48:08.410Z,97971.00
2024-03-11T08:49:08.458Z,97970.00
2024-03-11T08:51:08.629Z,97974.00
2024-03-11T08:52:08.487Z,97969.00
2024-03-11T08:53:08.515Z,97979.00
2024-03-11T08:55:08.410Z,97983.00
2024-03-11T08:56:08.462Z,97978.00
2024-03-11T08:57:08.539Z,97985.00
2024-03-11T08:58:08.440Z,97987.00
2024-03-11T08:59:08.629Z,97985.00
2024-03-11T09:00:08.536Z,97990.00
2024-03-11T09:01:08.597Z,97997.00
2024-03-11T09:02:08.660Z,97992.00
2024-03-11T09:04:08.470Z,97996.00
2024-03-11T09:05:08.481Z,97999.00
2024-03-11T09:06:08.549Z,98001.00
2024-03-11T09:07:08.578Z,98007.00
2024-03-11T09:08:08.576Z,98007.00
2024-03-11T09:09:08.607Z,98008.00
2024-03-11T09:10:08.689Z,98000.00
2024-03-11T09:12:08.785Z,98015.00
2024-03-11T09:13:08.589Z,98011.00
2024-03-11T09:14:08.590Z,98008.00
2024-03-11T09:15:08.747Z,98016.00
2024-03-11T09:17:08.705Z,98019.00
2024-03-11T09:18:08.735Z,98027.00
2024-03-11T09:19:11.502Z,98030.00
2024-03-11T09:20:08.731Z,98028.00
2024-03-11T09:22:08.723Z,98027.00
2024-03-11T09:23:08.777Z,98029.00
2024-03-11T09:24:08.740Z,98038.00
2024-03-11T09:25:08.877Z,98038.00
2024-03-11T09:26:08.815Z,98037.00
2024-03-11T09:27:08.932Z,98038.00
2024-03-11T09:28:08.815Z,98044.00
2024-03-11T09:31:08.850Z,98036.00
2024-03-11T09:32:08.895Z,98046.00
2024-03-11T09:33:09.066Z,98041.00
2024-03-11T09:34:08.905Z,98038.00
2024-03-11T09:35:08.868Z,98041.00
2024-03-11T09:36:08.954Z,98045.00
2024-03-11T09:37:08.909Z,98043.00
2024-03-11T09:38:08.923Z,98048.00
2024-03-11T09:39:09.036Z,98044.00
2024-03-11T09:40:08.949Z,98051.00
2024-03-11T09:41:09.001Z,98047.00
2024-03-11T09:42:09.174Z,98040.00
2024-03-11T09:43:09.094Z,98046.00
2024-03-11T09:44:09.044Z,98045.00
2024-03-11T09:45:09.171Z,98044.00
2024-03-11T09:46:09.035Z,98050.00
2024-03-11T09:47:09.048Z,98047.00
2024-03-11T09:48:09.154Z,98047.00
2024-03-11T09:49:09.131Z,98047.00
2024-03-11T09:50:09.103Z,98050.00
2024-03-11T09:51:09.135Z,98043.00
2024-03-11T09:52:09.103Z,98054.00
2024-03-11T09:53:09.689Z,98057.00
2024-03-11T09:54:09.125Z,98059.00
2024-03-11T09:55:11.922Z,98061.00
2024-03-11T09:56:09.108Z,98055.00
2024-03-11T09:57:09.233Z,98056.00
2024-03-11T09:58:09.231Z,98060.00
2024-03-11T09:59:09.133Z,98076.00
2024-03-11T10:00:09.210Z,98063.00
2024-03-11T10:01:09.312Z,98062.00
2024-03-11T10:02:09.172Z,98071.00
2024-03-11T10:03:09.239Z,98069.00
2024-03-11T10:04:09.230Z,98071.00
2024-03-11T10:05:09.188Z,98075.00
2024-03-11T10:06:09.871Z,98076.00
2024-03-11T10:07:11.490Z,98078.00
2024-03-11T10:08:09.240Z,98073.00
2024-03-11T10:09:09.307Z,98079.00
2024-03-11T10:10:09.454Z,98069.00
2024-03-11T10:11:09.329Z,98076.00
2024-03-11T10:12:09.806Z,98081.00
2024-03-11T10:13:09.283Z,98079.00
2024-03-11T10:14:09.328Z,98076.00
2024-03-11T10:15:09.495Z,98077.00
2024-03-11T10:16:09.374Z,98079.00
2024-03-11T10:17:09.377Z,98079.00
2024-03-11T10:18:09.429Z,98076.00
2024-03-11T10:19:09.547Z,98080.00
2024-03-11T10:20:09.421Z,98073.00
2024-03-11T10:21:09.543Z,98077.00
2024-03-11T10:22:09.439Z,98076.00
2024-03-11T10:23:09.456Z,98071.00
2024-03-11T10:24:09.506Z,98074.00
2024-03-11T10:25:09.508Z,98075.00
2024-03-11T10:26:09.635Z,98076.00
2024-03-11T10:27:09.581Z,98075.00
2024-03-11T10:28:09.588Z,98080.00
2024-03-11T10:29:09.477Z,98077.00
2024-03-11T10:30:09.656Z,98076.00
2024-03-11T10:31:09.500Z,98078.00
2024-03-11T10:32:09.521Z,98075.00
2024-03-11T10:33:09.547Z,98069.00
2024-03-11T10:35:09.522Z,98069.00
2024-03-11T10:37:09.677Z,98072.00
2024-03-11T10:38:09.620Z,98075.00
2024-03-11T10:39:09.649Z,98077.00
2024-03-11T10:40:09.712Z,98075.00
2024-03-11T10:41:10.383Z,98068.00
2024-03-11T10:42:09.600Z,98061.00
2024-03-11T10:43:09.679Z,98061.00
2024-03-11T10:44:09.669Z,98064.00
2024-03-11T10:45:10.611Z,98073.00
2024-03-11T10:46:09.856Z,98078.00
2024-03-11T10:47:09.724Z,98080.00
2024-03-11T10:48:09.959Z,98078.00
2024-03-11T10:49:09.790Z,98078.00
2024-03-11T10:50:09.727Z,98079.00
2024-03-11T10:51:09.857Z,98080.00
2024-03-11T10:52:09.893Z,98074.00
2024-03-11T10:53:09.738Z,98084.00
2024-03-11T10:54:09.917Z,98082.00
2024-03-11T10:55:14.279Z,98081.00
2024-03-11T10:56:09.781Z,98087.00
2024-03-11T10:57:09.926Z,98081.00
2024-03-11T10:58:09.812Z,98084.00
2024-03-11T10:59:09.790Z,98084.00
2024-03-11T11:00:10.082Z,98085.00
2024-03-11T11:01:10.008Z,98085.00
2024-03-11T11:02:09.865Z,98081.00
2024-03-11T11:03:09.935Z,98077.00
2024-03-11T11:04:09.907Z,98078.00
2024-03-11T11:05:10.023Z,98082.00
2024-03-11T11:06:09.937Z,98081.00
2024-03-11T11:07:09.920Z,98076.00
2024-03-11T11:08:09.884Z,98075.00
2024-03-11T11:09:09.996Z,98070.00
2024-03-11T11:10:09.873Z,98072.00
2024-03-11T11:11:09.970Z,98073.00
2024-03-11T11:12:10.091Z,98068.00
2024-03-11T11:13:09.892Z,98065.00
2024-03-11T11:14:09.901Z,98067.00
2024-03-11T11:15:10.025Z,98060.00
2024-03-11T11:16:10.050Z,98058.00
2024-03-11T11:17:09.909Z,98059.00
2024-03-11T11:18:10.022Z,98059.00
2024-03-11T11:19:09.958Z,98057.00
2024-03-11T11:20:09.948Z,98057.00
2024-03-11T11:21:10.002Z,98058.00
2024-03-11T11:22:09.940Z,98061.00
2024-03-11T11:23:09.959Z,98060.00
2024-03-11T11:24:10.052Z,98058.00
2024-03-11T11:25:10.006Z,98064.00
2024-03-11T11:26:10.059Z,98056.00
2024-03-11T11:27:10.127Z,98050.00
2024-03-11T11:28:10.095Z,98049.00
2024-03-11T11:29:10.120Z,98051.00
2024-03-11T11:30:10.119Z,98047.00
2024-03-11T11:31:10.114Z,98045.00
2024-03-11T11:32:10.138Z,98047.00
2024-03-11T11:33:10.264Z,98046.00
2024-03-11T11:34:10.317Z,98047.00
2024-03-11T11:35:10.151Z,98045.00
2024-03-11T11:36:10.223Z,98041.00
2024-03-11T11:37:10.250Z,98046.00
2024-03-11T11:38:10.161Z,98057.00
2024-03-11T11:39:10.311Z,98053.00
2024-03-11T11:40:10.239Z,98048.00
2024-03-11T11:41:10.209Z,98042.00
2024-03-11T11:42:10.209Z,98050.00
2024-03-11T11:43:10.202Z,98039.00
2024-03-11T11:44:10.221Z,98042.00
2024-03-11T11:45:10.347Z,98044.00
2024-03-11T11:46:10.389Z,98044.00
2024-03-11T11:47:10.356Z,98044.00
2024-03-11T11:48:10.282Z,98050.00
2024-03-11T11:49:10.254Z,98048.00
2024-03-11T11:50:10.311Z,98046.00
2024-03-11T11:51:10.250Z,98051.00
2024-03-11T11:52:10.257Z,98052.00
2024-03-11T11:53:10.267Z,98036.00
2024-03-11T11:54:13.275Z,98038.00
2024-03-11T11:55:10.391Z,98042.00
2024-03-11T11:57:10.427Z,98036.00
2024-03-11T11:58:11.053Z,98043.00
2024-03-11T11:59:10.390Z,98049.00
2024-03-11T12:00:10.501Z,98072.00
2024-03-11T12:01:10.441Z,98050.00
2024-03-11T12:02:10.407Z,98057.00
2024-03-11T12:04:10.465Z,98044.00
2024-03-11T12:05:10.479Z,98048.00
2024-03-11T12:06:10.558Z,98046.00
2024-03-11T12:07:10.392Z,98042.00
2024-03-11T12:08:10.473Z,98044.00
2024-03-11T12:09:10.413Z,98047.00
2024-03-11T12:10:10.521Z,98041.00
2024-03-11T12:11:10.446Z,98052.00
2024-03-11T12:12:10.522Z,98046.00
2024-03-11T12:13:10.479Z,98048.00
2024-03-11T12:14:10.487Z,98055.00
2024-03-11T12:15:10.504Z,98060.00
2024-03-11T12:16:10.522Z,98053.00
2024-03-11T12:17:10.517Z,98060.00
2024-03-11T12:18:10.629Z,98057.00
2024-03-11T12:19:10.618Z,98056.00
2024-03-11T12:20:10.591Z,98064.00
2024-03-11T12:21:10.587Z,98062.00
2024-03-11T12:22:10.703Z,98061.00
2024-03-11T12:23:10.664Z,98066.00
2024-03-11T12:24:10.629Z,98055.00